2022年9月25日

时间 代码 天气 温度 能见度 天花板 METAR/SPECI
13:00
V
33 °C 10 km+ - 060° 060° 10 - 15 kt METAR AYNZ 250300Z 06010G15KT 9999 SCT040 33/21 Q1008
12:00
V
32 °C 10 km+ - 090° 090° 5 kt METAR AYNZ 250200Z 09005KT 9999 SCT035 32/21 Q1009
11:00
V
31 °C 10 km+ - 100° 100° 3 kt METAR AYNZ 250100Z 10003KT 9999 FEW030 SCT080 31/21 Q1011
10:00
V
28 °C 10 km+ 9.000 ft 290° 290° 3 kt METAR AYNZ 250000Z 29003KT 9999 FEW030 BKN090 28/22 Q1012
08:00
V
25 °C 10 km+ 9.000 ft 270° 270° 3 kt METAR AYNZ 242200Z 27003KT 9999 FEW030 BKN090 25/21 Q1012
07:00
V
24 °C 10 km+ - Var Var 3 kt METAR AYNZ 242100Z VRB03KT 9999 SCT030 24/21 Q1011
06:00
V
23 °C 10 km+ - Var Var 3 kt METAR AYNZ 242000Z VRB03KT 9999 SCT035 23/21 Q1010=

2022年9月24日

时间 代码 天气 温度 能见度 天花板 METAR/SPECI
18:00
V
27 °C 10 km+ 4.000 ft 060° 060° 15 - 20 kt METAR AYNZ 240800Z 06015G20KT 9999 SCT020 BKN040 27/20 Q1008
17:00
V
27 °C 10 km+ 4.000 ft 090° 090° 5 - 10 kt METAR AYNZ 240700Z 09005G10KT 9999 SCT020 BKN040 27/21 Q1007
16:00
V
28 °C 10 km+ 4.000 ft 080° 080° 10 - 15 kt METAR AYNZ 240600Z 08010G15KT 9999 SCT020 BKN040 28/20 Q1007
15:00
V
30 °C 10 km+ - 070° 070° 10 - 15 kt METAR AYNZ 240500Z 07010G15KT 9999 SCT020 SCT040 30/20 Q1007
14:00
V
32 °C 10 km+ - 100° 100° 10 - 15 kt METAR AYNZ 240400Z 10010G15KT 9999 SCT020 SCT040 32/22 Q1007
13:00
V
31 °C 10 km+ 4.000 ft 070° 070° 10 kt METAR AYNZ 240300Z 07010KT 9999 SCT020 BKN040 31/22 Q1008
12:00
V
30 °C 10 km+ 4.000 ft 120° 120° 8 kt METAR AYNZ 240200Z 12008KT 9999 SCT020 BKN040 30/21 Q1009
11:00
V
29 °C 10 km+ 5.000 ft 100° 100° 3 kt METAR AYNZ 240100Z 10003KT 9999 SCT020 BKN050 29/22 Q1010
10:00
V
26 °C 10 km+ 4.000 ft 120° 120° 3 kt METAR AYNZ 240000Z 12003KT 9999 SCT010 BKN040 26/23 Q1011
06:00
V
24 °C 10 km+ 5.000 ft 260° 260° 5 kt METAR AYNZ 232000Z 26005KT 9999 -SHRA SCT020 BKN050 24/22 Q1008=

2022年9月23日

时间 代码 天气 温度 能见度 天花板 METAR/SPECI
18:00
V
26 °C 10 km+ 5.000 ft 090° 090° 10 - 15 kt METAR AYNZ 230800Z 09010G15KT 9999 SCT030 BKN050 26/21 Q1007=
17:00
V
27 °C 10 km+ 5.000 ft 090° 090° 10 - 15 kt METAR AYNZ 230700Z 09010G15KT 9999 SCT030 BKN050 27/21 Q1007
16:00
V
29 °C 10 km+ 5.000 ft 090° 090° 10 - 15 kt METAR AYNZ 230600Z 09010G15KT 9999 SCT030 BKN050 29/23 Q1006
15:00
V
31 °C 10 km+ - 090° 090° 10 - 15 kt METAR AYNZ 230500Z 09010G15KT 9999 HZ SCT030 31/22 Q1006
14:00
V
30 °C 10 km+ - 090° 090° 10 - 15 kt METAR AYNZ 230400Z 09010G15KT 9999 HZ SCT030 30/- Q1006
12:00
V
31 °C 10 km+ - 120° 120° 10 kt METAR AYNZ 230200Z 12010KT 9999 SCT025 SCT060 31/23 Q1008 RMK
11:00
V
29 °C 10 km+ 6.000 ft 110° 110° 10 kt METAR AYNZ 230100Z 11010KT 9999 SCT020 BKN060 29/23 Q1010
10:00
V
28 °C 10 km+ - 120° 120° 8 kt METAR AYNZ 230000Z 12008KT 9999 FEW005 SCT020 SCT060 28/23 Q1011
09:00
V
27 °C 10 km+ - Var Var 3 kt METAR AYNZ 222300Z VRB03KT 9999 FEW005 SCT020 SCT060 27/23 Q1011
08:00
V
25 °C 10 km+ - Var Var 3 kt METAR AYNZ 222200Z VRB03KT 9999 FEW005 SCT025 SCT060 25/22 Q1011
较旧的数据

我们和第三方通过cookies跟踪您在我们网站上的上网行为。如果您继续,我们认为您同意我们的cookie政策。 了解更多